createdAt,value
2019-06-27T00:00:21.336Z,19.80
2019-06-27T00:04:25.866Z,19.80
2019-06-27T00:08:30.643Z,19.80
2019-06-27T00:12:35.130Z,19.80
2019-06-27T00:16:39.624Z,19.60
2019-06-27T00:20:44.177Z,19.60
2019-06-27T00:24:48.675Z,19.60
2019-06-27T00:28:53.170Z,19.60
2019-06-27T00:32:57.703Z,19.60
2019-06-27T00:37:02.188Z,19.60
2019-06-27T00:41:06.709Z,19.50
2019-06-27T00:45:11.251Z,19.50
2019-06-27T00:49:15.732Z,19.50
2019-06-27T00:53:20.199Z,19.50
2019-06-27T00:57:24.727Z,19.50
2019-06-27T01:01:29.295Z,19.40
2019-06-27T01:05:33.738Z,19.40
2019-06-27T01:09:38.236Z,19.30
2019-06-27T01:13:42.694Z,19.20
2019-06-27T01:17:47.203Z,19.20
2019-06-27T01:21:51.719Z,19.10
2019-06-27T01:25:56.247Z,19.20
2019-06-27T01:30:00.714Z,19.10
2019-06-27T01:34:05.189Z,19.20
2019-06-27T01:38:09.675Z,19.10
2019-06-27T01:42:14.180Z,19.10
2019-06-27T01:46:18.680Z,19.00
2019-06-27T01:50:23.172Z,18.90
2019-06-27T01:54:27.623Z,18.80
2019-06-27T01:58:32.119Z,18.70
2019-06-27T02:02:36.601Z,18.60
2019-06-27T02:06:41.094Z,18.60
2019-06-27T02:10:45.608Z,18.20
2019-06-27T02:14:50.076Z,17.90
2019-06-27T02:18:54.605Z,17.70
2019-06-27T02:22:59.120Z,17.60
2019-06-27T02:27:03.719Z,17.50
2019-06-27T02:31:08.208Z,17.40
2019-06-27T02:35:13.005Z,17.30
2019-06-27T02:39:17.468Z,17.30
2019-06-27T02:43:21.960Z,17.20
2019-06-27T02:47:26.452Z,17.20
2019-06-27T02:51:30.945Z,17.10
2019-06-27T02:55:35.432Z,17.10
2019-06-27T02:59:39.906Z,17.00
2019-06-27T03:03:44.503Z,17.00
2019-06-27T03:07:48.976Z,16.90
2019-06-27T03:11:53.580Z,16.80
2019-06-27T03:15:58.073Z,16.80
2019-06-27T03:20:02.578Z,16.70
2019-06-27T03:24:07.078Z,16.70
2019-06-27T03:28:11.560Z,16.60
2019-06-27T03:32:16.048Z,16.60
2019-06-27T03:36:20.555Z,16.60
2019-06-27T03:40:25.009Z,16.50
2019-06-27T03:44:29.488Z,16.50
2019-06-27T03:48:33.973Z,16.50
2019-06-27T03:52:38.465Z,16.50
2019-06-27T03:56:42.935Z,16.50
2019-06-27T04:00:47.408Z,16.40
2019-06-27T04:04:51.882Z,16.40
2019-06-27T04:08:56.356Z,16.40
2019-06-27T04:13:00.892Z,16.40
2019-06-27T04:17:05.390Z,16.30
2019-06-27T04:21:09.904Z,16.30
2019-06-27T04:25:14.468Z,16.30
2019-06-27T04:29:32.675Z,16.20
2019-06-27T04:33:25.086Z,16.30
2019-06-27T04:37:29.580Z,16.10
2019-06-27T04:41:34.112Z,16.10
2019-06-27T04:45:38.595Z,16.10
2019-06-27T04:49:43.081Z,16.00
2019-06-27T04:53:47.585Z,16.00
2019-06-27T04:57:52.054Z,16.00
2019-06-27T05:01:56.546Z,16.00
2019-06-27T05:06:01.005Z,16.00
2019-06-27T05:10:06.286Z,16.00
2019-06-27T05:14:10.886Z,16.10
2019-06-27T05:18:15.434Z,16.10
2019-06-27T05:22:19.920Z,16.10
2019-06-27T05:26:24.375Z,16.00
2019-06-27T05:30:28.872Z,15.90
2019-06-27T05:34:33.604Z,15.90
2019-06-27T05:38:38.112Z,16.00
2019-06-27T05:42:42.806Z,16.00
2019-06-27T05:46:47.305Z,16.00
2019-06-27T05:50:51.822Z,16.00
2019-06-27T05:54:56.318Z,16.00
2019-06-27T05:59:00.832Z,16.10
2019-06-27T06:03:05.425Z,16.10
2019-06-27T06:07:09.911Z,16.10
2019-06-27T06:11:14.364Z,16.10
2019-06-27T06:15:18.863Z,16.10
2019-06-27T06:19:23.387Z,16.20
2019-06-27T06:23:27.948Z,16.30
2019-06-27T06:27:32.442Z,16.30
2019-06-27T06:31:36.926Z,16.40
2019-06-27T06:35:41.414Z,16.40
2019-06-27T06:39:45.907Z,16.40
2019-06-27T06:43:50.487Z,16.40
2019-06-27T06:47:54.967Z,16.50
2019-06-27T06:51:59.435Z,16.60
2019-06-27T06:56:03.930Z,17.00
2019-06-27T07:00:10.416Z,18.10
2019-06-27T07:04:14.916Z,19.50
2019-06-27T07:08:19.408Z,20.80
2019-06-27T07:12:24.496Z,21.40
2019-06-27T07:16:28.952Z,21.40
2019-06-27T07:20:33.490Z,21.20
2019-06-27T07:24:37.985Z,21.50
2019-06-27T07:28:42.471Z,22.60
2019-06-27T07:32:46.920Z,23.50
2019-06-27T07:36:51.441Z,23.60
2019-06-27T07:40:55.963Z,23.10
2019-06-27T07:45:00.460Z,22.90
2019-06-27T07:49:04.979Z,22.90
2019-06-27T07:53:09.484Z,23.00
2019-06-27T07:57:14.002Z,23.20
2019-06-27T08:01:34.137Z,23.40
2019-06-27T08:05:24.699Z,23.90
2019-06-27T08:09:29.210Z,24.40
2019-06-27T08:13:33.731Z,25.00
2019-06-27T08:17:38.203Z,25.60
2019-06-27T08:21:42.767Z,26.10
2019-06-27T08:25:47.295Z,26.20
2019-06-27T08:29:51.877Z,26.20
2019-06-27T08:33:56.483Z,26.20
2019-06-27T08:38:00.963Z,26.40
2019-06-27T08:42:05.540Z,26.10
2019-06-27T08:46:10.031Z,26.20
2019-06-27T08:50:14.937Z,26.20
2019-06-27T08:54:19.424Z,26.20
2019-06-27T08:58:23.955Z,26.10
2019-06-27T09:02:28.520Z,26.00
2019-06-27T09:06:33.061Z,26.00
2019-06-27T09:10:37.568Z,26.00
2019-06-27T09:14:42.228Z,25.70
2019-06-27T09:18:46.741Z,25.70
2019-06-27T09:26:55.213Z,25.40
2019-06-27T09:30:59.750Z,25.10
2019-06-27T09:35:04.651Z,25.10
2019-06-27T09:39:09.136Z,24.60
2019-06-27T09:43:13.673Z,24.10
2019-06-27T09:47:18.214Z,23.60
2019-06-27T09:51:22.781Z,23.30
2019-06-27T09:55:27.288Z,22.90
2019-06-27T09:59:31.816Z,22.70
2019-06-27T10:03:36.305Z,22.50
2019-06-27T10:07:40.828Z,22.30
2019-06-27T10:11:45.330Z,22.10
2019-06-27T10:15:49.867Z,22.00
2019-06-27T10:19:54.419Z,21.90
2019-06-27T10:23:58.883Z,21.90
2019-06-27T10:28:03.401Z,21.80
2019-06-27T10:32:07.903Z,21.80
2019-06-27T10:36:12.643Z,21.80
2019-06-27T10:40:17.251Z,21.90
2019-06-27T10:44:21.797Z,21.90
2019-06-27T10:48:26.320Z,21.90
2019-06-27T10:52:30.873Z,22.00
2019-06-27T10:56:39.623Z,22.00
2019-06-27T11:00:41.631Z,22.00
2019-06-27T11:04:46.087Z,22.00
2019-06-27T11:08:50.620Z,22.00
2019-06-27T11:12:55.139Z,22.00
2019-06-27T11:16:59.643Z,22.00
2019-06-27T11:21:04.184Z,22.00
2019-06-27T11:25:08.940Z,22.10
2019-06-27T11:29:13.447Z,22.10
2019-06-27T11:33:31.169Z,22.10
2019-06-27T11:37:24.219Z,22.20
2019-06-27T11:41:28.759Z,22.20
2019-06-27T11:45:33.253Z,22.30
2019-06-27T11:49:37.792Z,22.30
2019-06-27T11:53:43.383Z,22.50
2019-06-27T11:57:48.062Z,22.60
2019-06-27T12:01:52.581Z,22.60
2019-06-27T12:05:57.091Z,22.70
2019-06-27T12:10:01.575Z,22.80
2019-06-27T12:14:06.103Z,22.90
2019-06-27T12:18:10.700Z,22.90
2019-06-27T12:22:15.205Z,23.00
2019-06-27T12:26:19.716Z,23.00
2019-06-27T12:30:24.180Z,23.20
2019-06-27T12:34:28.880Z,23.30
2019-06-27T12:38:33.375Z,23.30
2019-06-27T12:42:38.252Z,23.50
2019-06-27T12:46:42.779Z,23.60
2019-06-27T12:50:47.340Z,23.70
2019-06-27T12:54:51.943Z,23.80
2019-06-27T12:58:56.480Z,23.90
2019-06-27T13:03:01.068Z,24.00
2019-06-27T13:07:05.612Z,24.10
2019-06-27T13:11:10.513Z,24.30
2019-06-27T13:15:15.275Z,24.20
2019-06-27T13:19:20.027Z,24.30
2019-06-27T13:23:24.647Z,24.20
2019-06-27T13:27:29.513Z,24.20
2019-06-27T13:31:34.152Z,24.30
2019-06-27T13:35:38.776Z,24.30
2019-06-27T13:39:43.453Z,24.40
2019-06-27T13:43:49.291Z,24.40
2019-06-27T13:47:54.156Z,24.60
2019-06-27T13:51:58.844Z,24.60
2019-06-27T13:56:03.469Z,24.70
2019-06-27T14:00:08.578Z,24.70
2019-06-27T14:04:13.202Z,24.70
2019-06-27T14:08:17.780Z,24.80
2019-06-27T14:12:22.340Z,25.00
2019-06-27T14:16:26.922Z,25.10
2019-06-27T14:20:31.543Z,25.20
2019-06-27T14:24:36.152Z,25.30
2019-06-27T14:28:40.737Z,25.30
2019-06-27T14:32:45.294Z,25.30
2019-06-27T14:36:49.860Z,25.30
2019-06-27T14:40:54.440Z,25.30
2019-06-27T14:44:59.006Z,25.30
2019-06-27T14:49:03.635Z,25.30
2019-06-27T14:53:08.241Z,25.20
2019-06-27T14:57:12.783Z,25.30
2019-06-27T15:01:17.372Z,25.30
2019-06-27T15:05:32.035Z,25.30
2019-06-27T15:09:28.257Z,25.40
2019-06-27T15:13:32.795Z,25.40
2019-06-27T15:17:37.673Z,25.50
2019-06-27T15:21:42.392Z,25.40
2019-06-27T15:25:47.360Z,25.40
2019-06-27T15:29:51.989Z,25.50
2019-06-27T15:33:56.724Z,25.50
2019-06-27T15:38:01.467Z,25.50
2019-06-27T15:42:06.114Z,25.50
2019-06-27T15:46:10.785Z,25.40
2019-06-27T15:50:15.347Z,25.40
2019-06-27T15:54:19.907Z,25.40
2019-06-27T15:58:24.425Z,25.30
2019-06-27T16:02:28.887Z,25.30
2019-06-27T16:06:33.393Z,25.30
2019-06-27T16:10:37.885Z,25.10
2019-06-27T16:14:42.385Z,25.10
2019-06-27T16:18:46.925Z,25.00
2019-06-27T16:22:51.391Z,25.00
2019-06-27T16:26:55.915Z,25.10
2019-06-27T16:31:00.434Z,25.00
2019-06-27T16:35:04.964Z,25.00
2019-06-27T16:39:09.463Z,24.90
2019-06-27T16:43:13.961Z,24.90
2019-06-27T16:47:18.443Z,24.80
2019-06-27T16:51:22.953Z,24.60
2019-06-27T16:55:27.452Z,24.60
2019-06-27T16:59:31.972Z,24.60
2019-06-27T17:03:36.441Z,24.50
2019-06-27T17:07:40.948Z,24.40
2019-06-27T17:11:45.463Z,24.40
2019-06-27T17:15:49.956Z,24.40
2019-06-27T17:19:54.484Z,24.40
2019-06-27T17:23:58.952Z,24.20
2019-06-27T17:28:03.450Z,24.10
2019-06-27T17:32:07.954Z,24.00
2019-06-27T17:36:12.451Z,23.90
2019-06-27T17:40:18.044Z,23.80
2019-06-27T17:44:22.610Z,23.60
2019-06-27T17:48:27.079Z,23.50
2019-06-27T17:52:31.632Z,23.40
2019-06-27T17:56:36.099Z,23.30
2019-06-27T18:00:40.676Z,23.30
2019-06-27T18:04:45.178Z,23.20
2019-06-27T18:08:49.662Z,23.10
2019-06-27T18:12:54.147Z,23.00
2019-06-27T18:16:58.667Z,23.00
2019-06-27T18:21:03.212Z,22.90
2019-06-27T18:25:07.723Z,22.80
2019-06-27T18:29:12.186Z,22.70
2019-06-27T18:33:16.702Z,22.50
2019-06-27T18:37:29.675Z,22.40
2019-06-27T18:41:27.331Z,22.30
2019-06-27T18:45:31.858Z,22.20
2019-06-27T18:49:36.336Z,22.10
2019-06-27T18:53:40.833Z,22.00
2019-06-27T18:57:45.331Z,21.80
2019-06-27T19:01:49.808Z,21.60
2019-06-27T19:05:54.288Z,21.40
2019-06-27T19:09:59.756Z,21.30
2019-06-27T19:14:04.234Z,21.10
2019-06-27T19:18:27.660Z,20.90
2019-06-27T19:22:49.704Z,20.70
2019-06-27T19:26:55.308Z,20.40
2019-06-27T19:30:59.788Z,20.20
2019-06-27T19:35:04.249Z,20.10
2019-06-27T19:39:08.736Z,19.90
2019-06-27T19:43:26.721Z,19.60
2019-06-27T19:47:19.362Z,19.50
2019-06-27T19:51:23.840Z,19.40
2019-06-27T19:55:28.302Z,19.30
2019-06-27T19:59:32.780Z,19.20
2019-06-27T20:03:37.371Z,19.20
2019-06-27T20:07:41.859Z,19.10
2019-06-27T20:11:46.360Z,19.00
2019-06-27T20:15:50.844Z,18.90
2019-06-27T20:19:55.339Z,18.90
2019-06-27T20:23:59.834Z,18.80
2019-06-27T20:28:04.360Z,18.70
2019-06-27T20:32:08.853Z,18.60
2019-06-27T20:36:13.326Z,18.70
2019-06-27T20:40:18.493Z,18.50
2019-06-27T20:44:25.510Z,18.40
2019-06-27T20:48:30.842Z,18.30
2019-06-27T20:52:35.377Z,18.30
2019-06-27T20:56:39.909Z,18.20
2019-06-27T21:00:44.385Z,18.10
2019-06-27T21:04:48.861Z,17.90
2019-06-27T21:08:53.351Z,18.00
2019-06-27T21:12:57.853Z,17.90
2019-06-27T21:17:02.363Z,17.80
2019-06-27T21:21:06.913Z,17.70
2019-06-27T21:25:12.698Z,17.70
2019-06-27T21:29:17.303Z,17.70
2019-06-27T21:33:21.771Z,17.60
2019-06-27T21:37:26.267Z,17.60
2019-06-27T21:41:31.715Z,17.60
2019-06-27T21:45:36.268Z,17.50
2019-06-27T21:49:40.803Z,17.50
2019-06-27T21:53:45.335Z,17.50
2019-06-27T21:57:49.877Z,17.50
2019-06-27T22:01:54.315Z,17.40
2019-06-27T22:05:58.843Z,17.40
2019-06-27T22:10:03.393Z,17.40
2019-06-27T22:14:08.224Z,17.40
2019-06-27T22:18:12.725Z,17.40
2019-06-27T22:22:17.261Z,17.30
2019-06-27T22:26:21.727Z,17.30
2019-06-27T22:30:26.210Z,17.30
2019-06-27T22:34:30.696Z,17.30
2019-06-27T22:38:52.740Z,17.20
2019-06-27T22:43:15.037Z,17.20
2019-06-27T22:47:37.804Z,17.20
2019-06-27T22:52:14.207Z,17.20
2019-06-27T22:56:18.705Z,17.20
2019-06-27T23:00:23.295Z,17.20
2019-06-27T23:04:27.810Z,17.20
2019-06-27T23:08:32.295Z,17.20
2019-06-27T23:12:38.343Z,17.20
2019-06-27T23:16:42.863Z,17.10
2019-06-27T23:20:47.461Z,17.10
2019-06-27T23:24:52.017Z,17.10
2019-06-27T23:28:56.509Z,17.10
2019-06-27T23:33:01.093Z,17.00
2019-06-27T23:37:05.626Z,17.00
2019-06-27T23:41:10.125Z,17.00
2019-06-27T23:45:14.631Z,17.00
2019-06-27T23:49:19.153Z,17.00
2019-06-27T23:53:23.635Z,17.00
2019-06-27T23:57:28.129Z,17.00
